sensor_id;sensor_type;location;lat;lon;timestamp;pressure;altitude;pressure_sealevel;temperature;humidity
75418;BME280;63997;52.112;5.420;2023-09-12T00:00:05;101406.56;;;19.27;91.32
75418;BME280;63997;52.112;5.420;2023-09-12T00:02:32;101402.63;;;19.21;91.38
75418;BME280;63997;52.112;5.420;2023-09-12T00:04:58;101405.25;;;19.17;91.41
75418;BME280;63997;52.112;5.420;2023-09-12T00:07:25;101405.22;;;19.14;91.73
75418;BME280;63997;52.112;5.420;2023-09-12T00:09:51;101403.19;;;19.07;91.68
75418;BME280;63997;52.112;5.420;2023-09-12T00:12:22;101398.06;;;18.98;91.87
75418;BME280;63997;52.112;5.420;2023-09-12T00:14:49;101382.56;;;18.92;91.90
75418;BME280;63997;52.112;5.420;2023-09-12T00:17:15;101387.88;;;18.88;92.05
75418;BME280;63997;52.112;5.420;2023-09-12T00:19:42;101376.63;;;18.83;92.40
75418;BME280;63997;52.112;5.420;2023-09-12T00:22:09;101373.16;;;18.82;92.95
75418;BME280;63997;52.112;5.420;2023-09-12T00:24:35;101379.34;;;18.83;92.67
75418;BME280;63997;52.112;5.420;2023-09-12T00:27:02;101372.41;;;18.82;92.74
75418;BME280;63997;52.112;5.420;2023-09-12T00:29:31;101378.94;;;18.81;92.37
75418;BME280;63997;52.112;5.420;2023-09-12T00:31:57;101366.16;;;18.77;91.98
75418;BME280;63997;52.112;5.420;2023-09-12T00:34:24;101371.00;;;18.68;91.05
75418;BME280;63997;52.112;5.420;2023-09-12T00:36:50;101373.16;;;18.59;90.63
75418;BME280;63997;52.112;5.420;2023-09-12T00:39:17;101371.78;;;18.46;89.93
75418;BME280;63997;52.112;5.420;2023-09-12T00:41:43;101377.78;;;18.36;90.06
75418;BME280;63997;52.112;5.420;2023-09-12T00:44:10;101376.44;;;18.26;90.04
75418;BME280;63997;52.112;5.420;2023-09-12T00:46:36;101382.81;;;18.18;90.21
75418;BME280;63997;52.112;5.420;2023-09-12T00:49:06;101382.81;;;18.18;90.58
75418;BME280;63997;52.112;5.420;2023-09-12T00:51:34;101391.28;;;18.16;90.94
75418;BME280;63997;52.112;5.420;2023-09-12T00:54:01;101390.91;;;18.18;91.21
75418;BME280;63997;52.112;5.420;2023-09-12T00:56:28;101383.63;;;18.18;91.51
75418;BME280;63997;52.112;5.420;2023-09-12T00:58:55;101395.19;;;18.19;91.73
75418;BME280;63997;52.112;5.420;2023-09-12T01:01:23;101390.50;;;18.16;91.97
75418;BME280;63997;52.112;5.420;2023-09-12T01:03:50;101388.94;;;18.15;92.37
75418;BME280;63997;52.112;5.420;2023-09-12T01:06:19;101394.69;;;18.13;93.12
75418;BME280;63997;52.112;5.420;2023-09-12T01:08:47;101385.84;;;18.13;93.34
75418;BME280;63997;52.112;5.420;2023-09-12T01:11:13;101383.47;;;18.11;93.38
75418;BME280;63997;52.112;5.420;2023-09-12T01:13:40;101387.31;;;18.10;93.44
75418;BME280;63997;52.112;5.420;2023-09-12T01:16:06;101382.94;;;18.02;93.35
75418;BME280;63997;52.112;5.420;2023-09-12T01:18:33;101374.44;;;18.00;93.17
75418;BME280;63997;52.112;5.420;2023-09-12T01:21:22;101384.00;;;17.97;92.93
75418;BME280;63997;52.112;5.420;2023-09-12T01:26:41;101379.28;;;17.91;92.67
75418;BME280;63997;52.112;5.420;2023-09-12T01:29:12;101394.28;;;17.92;93.19
75418;BME280;63997;52.112;5.420;2023-09-12T01:31:39;101386.91;;;17.89;92.96
75418;BME280;63997;52.112;5.420;2023-09-12T01:34:10;101393.44;;;17.88;93.53
75418;BME280;63997;52.112;5.420;2023-09-12T01:36:37;101381.09;;;17.87;93.32
75418;BME280;63997;52.112;5.420;2023-09-12T01:39:04;101387.63;;;17.86;93.34
75418;BME280;63997;52.112;5.420;2023-09-12T01:41:32;101384.09;;;17.82;93.17
75418;BME280;63997;52.112;5.420;2023-09-12T01:44:01;101378.28;;;17.80;93.02
75418;BME280;63997;52.112;5.420;2023-09-12T01:46:29;101381.38;;;17.82;93.19
75418;BME280;63997;52.112;5.420;2023-09-12T01:48:58;101382.16;;;17.82;92.50
75418;BME280;63997;52.112;5.420;2023-09-12T01:51:26;101380.53;;;17.78;91.69
75418;BME280;63997;52.112;5.420;2023-09-12T01:53:54;101378.81;;;17.69;91.03
75418;BME280;63997;52.112;5.420;2023-09-12T01:56:21;101384.47;;;17.64;91.19
75418;BME280;63997;52.112;5.420;2023-09-12T01:58:48;101376.00;;;17.62;91.57
75418;BME280;63997;52.112;5.420;2023-09-12T02:01:14;101377.88;;;17.62;91.01
75418;BME280;63997;52.112;5.420;2023-09-12T02:03:41;101379.66;;;17.54;90.69
75418;BME280;63997;52.112;5.420;2023-09-12T02:06:07;101379.56;;;17.51;91.06
75418;BME280;63997;52.112;5.420;2023-09-12T02:08:34;101362.31;;;17.52;91.48
75418;BME280;63997;52.112;5.420;2023-09-12T02:11:00;101371.84;;;17.49;91.96
75418;BME280;63997;52.112;5.420;2023-09-12T02:13:27;101368.41;;;17.49;92.16
75418;BME280;63997;52.112;5.420;2023-09-12T02:16:00;101366.75;;;17.44;91.85
75418;BME280;63997;52.112;5.420;2023-09-12T02:18:27;101368.75;;;17.47;92.61
75418;BME280;63997;52.112;5.420;2023-09-12T02:20:54;101365.28;;;17.47;92.50
75418;BME280;63997;52.112;5.420;2023-09-12T02:23:20;101366.75;;;17.44;92.98
75418;BME280;63997;52.112;5.420;2023-09-12T02:25:46;101362.88;;;17.41;93.25
75418;BME280;63997;52.112;5.420;2023-09-12T02:28:13;101369.81;;;17.42;93.41
75418;BME280;63997;52.112;5.420;2023-09-12T02:30:39;101369.81;;;17.42;93.54
75418;BME280;63997;52.112;5.420;2023-09-12T02:33:09;101360.97;;;17.42;93.83
75418;BME280;63997;52.112;5.420;2023-09-12T02:35:35;101369.66;;;17.35;93.29
75418;BME280;63997;52.112;5.420;2023-09-12T02:38:02;101373.03;;;17.32;93.50
75418;BME280;63997;52.112;5.420;2023-09-12T02:40:28;101374.53;;;17.30;93.42
75418;BME280;63997;52.112;5.420;2023-09-12T02:42:55;101376.38;;;17.26;93.15
75418;BME280;63997;52.112;5.420;2023-09-12T02:45:21;101377.84;;;17.23;93.00
75418;BME280;63997;52.112;5.420;2023-09-12T02:47:48;101373.94;;;17.21;93.09
75418;BME280;63997;52.112;5.420;2023-09-12T02:50:14;101373.16;;;17.20;93.06
75418;BME280;63997;52.112;5.420;2023-09-12T02:52:41;101367.00;;;17.19;92.61
75418;BME280;63997;52.112;5.420;2023-09-12T02:55:07;101368.47;;;17.17;92.43
75418;BME280;63997;52.112;5.420;2023-09-12T02:57:34;101383.00;;;17.12;92.35
75418;BME280;63997;52.112;5.420;2023-09-12T03:00:00;101370.25;;;17.09;93.28
75418;BME280;63997;52.112;5.420;2023-09-12T03:02:27;101375.19;;;17.07;93.10
75418;BME280;63997;52.112;5.420;2023-09-12T03:04:55;101373.56;;;17.03;92.83
75418;BME280;63997;52.112;5.420;2023-09-12T03:07:22;101376.41;;;16.94;92.54
75418;BME280;63997;52.112;5.420;2023-09-12T03:09:49;101385.88;;;16.88;92.57
75418;BME280;63997;52.112;5.420;2023-09-12T03:12:16;101388.50;;;16.84;92.70
75418;BME280;63997;52.112;5.420;2023-09-12T03:14:42;101389.28;;;16.85;92.51
75418;BME280;63997;52.112;5.420;2023-09-12T03:17:09;101376.25;;;16.87;92.69
75418;BME280;63997;52.112;5.420;2023-09-12T03:19:35;101371.31;;;16.89;92.67
75418;BME280;63997;52.112;5.420;2023-09-12T03:22:02;101392.38;;;16.87;92.63
75418;BME280;63997;52.112;5.420;2023-09-12T03:24:28;101383.13;;;16.84;92.33
75418;BME280;63997;52.112;5.420;2023-09-12T03:26:55;101386.75;;;16.76;92.40
75418;BME280;63997;52.112;5.420;2023-09-12T03:29:21;101382.09;;;16.73;92.60
75418;BME280;63997;52.112;5.420;2023-09-12T03:31:49;101378.16;;;16.71;93.03
75418;BME280;63997;52.112;5.420;2023-09-12T03:34:15;101368.97;;;16.72;93.17
75418;BME280;63997;52.112;5.420;2023-09-12T03:36:42;101364.47;;;16.76;93.60
75418;BME280;63997;52.112;5.420;2023-09-12T03:39:08;101365.34;;;16.80;93.45
75418;BME280;63997;52.112;5.420;2023-09-12T03:41:35;101374.59;;;16.82;93.45
75418;BME280;63997;52.112;5.420;2023-09-12T03:44:01;101377.75;;;16.84;93.13
75418;BME280;63997;52.112;5.420;2023-09-12T03:46:28;101377.22;;;16.79;92.38
75418;BME280;63997;52.112;5.420;2023-09-12T03:48:55;101374.34;;;16.72;92.10
75418;BME280;63997;52.112;5.420;2023-09-12T03:51:21;101363.50;;;16.68;92.41
75418;BME280;63997;52.112;5.420;2023-09-12T03:53:48;101366.53;;;16.66;92.63
75418;BME280;63997;52.112;5.420;2023-09-12T03:56:16;101363.06;;;16.66;92.79
75418;BME280;63997;52.112;5.420;2023-09-12T03:58:46;101355.78;;;16.66;93.23
75418;BME280;63997;52.112;5.420;2023-09-12T04:01:12;101363.06;;;16.66;93.39
75418;BME280;63997;52.112;5.420;2023-09-12T04:03:39;101371.47;;;16.64;93.35
75418;BME280;63997;52.112;5.420;2023-09-12T04:06:05;101364.19;;;16.65;93.71
75418;BME280;63997;52.112;5.420;2023-09-12T04:08:33;101366.53;;;16.66;93.85
75418;BME280;63997;52.112;5.420;2023-09-12T04:10:59;101368.44;;;16.66;93.87
75418;BME280;63997;52.112;5.420;2023-09-12T04:13:26;101372.69;;;16.67;93.88
75418;BME280;63997;52.112;5.420;2023-09-12T04:15:52;101375.72;;;16.65;94.11
75418;BME280;63997;52.112;5.420;2023-09-12T04:18:19;101364.97;;;16.65;94.08
75418;BME280;63997;52.112;5.420;2023-09-12T04:20:46;101361.16;;;16.66;94.33
75418;BME280;63997;52.112;5.420;2023-09-12T04:23:12;101354.69;;;16.67;94.40
75418;BME280;63997;52.112;5.420;2023-09-12T04:25:42;101355.22;;;16.73;94.37
75418;BME280;63997;52.112;5.420;2023-09-12T04:28:09;101341.84;;;16.77;94.60
75418;BME280;63997;52.112;5.420;2023-09-12T04:30:35;101342.56;;;16.74;94.15
75418;BME280;63997;52.112;5.420;2023-09-12T04:33:02;101352.09;;;16.71;93.87
75418;BME280;63997;52.112;5.420;2023-09-12T04:35:33;101348.16;;;16.69;93.87
75418;BME280;63997;52.112;5.420;2023-09-12T04:37:59;101343.47;;;16.65;93.96
75418;BME280;63997;52.112;5.420;2023-09-12T04:40:25;101349.56;;;16.62;93.97
75418;BME280;63997;52.112;5.420;2023-09-12T04:42:53;101347.19;;;16.61;94.10
75418;BME280;63997;52.112;5.420;2023-09-12T04:45:20;101345.75;;;16.63;94.25
75418;BME280;63997;52.112;5.420;2023-09-12T04:47:46;101338.09;;;16.65;94.36
75418;BME280;63997;52.112;5.420;2023-09-12T04:50:13;101346.53;;;16.64;94.23
75418;BME280;63997;52.112;5.420;2023-09-12T04:52:39;101354.16;;;16.62;94.00
75418;BME280;63997;52.112;5.420;2023-09-12T04:55:06;101357.16;;;16.60;94.43
75418;BME280;63997;52.112;5.420;2023-09-12T04:57:32;101348.28;;;16.56;94.36
75418;BME280;63997;52.112;5.420;2023-09-12T04:59:59;101342.91;;;16.56;94.78
75418;BME280;63997;52.112;5.420;2023-09-12T05:02:25;101339.50;;;16.59;94.88
75418;BME280;63997;52.112;5.420;2023-09-12T05:04:52;101327.97;;;16.59;94.48
75418;BME280;63997;52.112;5.420;2023-09-12T05:07:19;101337.19;;;16.58;94.27
75418;BME280;63997;52.112;5.420;2023-09-12T05:09:45;101341.00;;;16.57;94.27
75418;BME280;63997;52.112;5.420;2023-09-12T05:12:11;101342.91;;;16.56;93.99
75418;BME280;63997;52.112;5.420;2023-09-12T05:14:38;101347.81;;;16.54;93.91
75418;BME280;63997;52.112;5.420;2023-09-12T05:17:05;101357.72;;;16.50;93.60
75418;BME280;63997;52.112;5.420;2023-09-12T05:19:31;101356.91;;;16.50;93.67
75418;BME280;63997;52.112;5.420;2023-09-12T05:21:58;101353.91;;;16.51;94.11
75418;BME280;63997;52.112;5.420;2023-09-12T05:24:24;101353.53;;;16.53;94.80
75418;BME280;63997;52.112;5.420;2023-09-12T05:26:51;101346.69;;;16.55;94.89
75418;BME280;63997;52.112;5.420;2023-09-12T05:29:17;101354.75;;;16.55;94.92
75418;BME280;63997;52.112;5.420;2023-09-12T05:31:44;101357.09;;;16.57;94.84
75418;BME280;63997;52.112;5.420;2023-09-12T05:34:10;101352.50;;;16.57;94.49
75418;BME280;63997;52.112;5.420;2023-09-12T05:36:37;101361.69;;;16.56;94.18
75418;BME280;63997;52.112;5.420;2023-09-12T05:39:03;101355.88;;;16.54;93.92
75418;BME280;63997;52.112;5.420;2023-09-12T05:41:30;101350.84;;;16.53;94.25
75418;BME280;63997;52.112;5.420;2023-09-12T05:43:56;101355.88;;;16.54;93.95
75418;BME280;63997;52.112;5.420;2023-09-12T05:46:22;101361.34;;;16.58;94.58
75418;BME280;63997;52.112;5.420;2023-09-12T05:48:49;101355.63;;;16.59;94.73
75418;BME280;63997;52.112;5.420;2023-09-12T05:51:15;101356.50;;;16.63;94.67
75418;BME280;63997;52.112;5.420;2023-09-12T05:53:42;101357.00;;;16.69;94.65
75418;BME280;63997;52.112;5.420;2023-09-12T05:56:08;101352.19;;;16.75;95.18
75418;BME280;63997;52.112;5.420;2023-09-12T05:58:35;101347.69;;;16.79;95.68
75418;BME280;63997;52.112;5.420;2023-09-12T06:01:02;101345.41;;;16.81;95.50
75418;BME280;63997;52.112;5.420;2023-09-12T06:03:29;101355.47;;;16.84;95.91
75418;BME280;63997;52.112;5.420;2023-09-12T06:05:55;101363.25;;;16.89;95.98
75418;BME280;63997;52.112;5.420;2023-09-12T06:08:22;101367.94;;;16.92;95.89
75418;BME280;63997;52.112;5.420;2023-09-12T06:10:48;101373.31;;;16.92;95.92
75418;BME280;63997;52.112;5.420;2023-09-12T06:13:15;101381.78;;;16.94;95.79
75418;BME280;63997;52.112;5.420;2023-09-12T06:15:41;101390.63;;;16.95;95.55
75418;BME280;63997;52.112;5.420;2023-09-12T06:18:08;101389.53;;;16.96;95.79
75418;BME280;63997;52.112;5.420;2023-09-12T06:20:35;101380.31;;;16.97;95.95
75418;BME280;63997;52.112;5.420;2023-09-12T06:23:01;101377.28;;;16.98;96.16
75418;BME280;63997;52.112;5.420;2023-09-12T06:25:29;101382.28;;;17.00;96.06
75418;BME280;63997;52.112;5.420;2023-09-12T06:27:56;101385.09;;;17.03;96.14
75418;BME280;63997;52.112;5.420;2023-09-12T06:30:22;101387.91;;;17.10;96.46
75418;BME280;63997;52.112;5.420;2023-09-12T06:32:49;101386.88;;;17.15;96.44
75418;BME280;63997;52.112;5.420;2023-09-12T06:35:15;101389.97;;;17.17;96.18
75418;BME280;63997;52.112;5.420;2023-09-12T06:37:43;101386.25;;;17.22;96.15
75418;BME280;63997;52.112;5.420;2023-09-12T06:40:10;101395.97;;;17.26;96.17
75418;BME280;63997;52.112;5.420;2023-09-12T06:42:37;101393.78;;;17.32;96.28
75418;BME280;63997;52.112;5.420;2023-09-12T06:45:03;101393.50;;;17.37;96.50
75418;BME280;63997;52.112;5.420;2023-09-12T06:47:30;101392.88;;;17.43;96.79
75418;BME280;63997;52.112;5.420;2023-09-12T06:49:56;101393.81;;;17.51;96.95
75418;BME280;63997;52.112;5.420;2023-09-12T06:52:23;101398.91;;;17.56;97.05
75418;BME280;63997;52.112;5.420;2023-09-12T06:54:50;101396.38;;;17.63;97.14
75418;BME280;63997;52.112;5.420;2023-09-12T06:57:16;101397.28;;;17.71;96.98
75418;BME280;63997;52.112;5.420;2023-09-12T06:59:43;101392.06;;;17.78;96.82
75418;BME280;63997;52.112;5.420;2023-09-12T07:02:09;101389.59;;;17.89;97.11
75418;BME280;63997;52.112;5.420;2023-09-12T07:04:37;101401.63;;;17.95;97.06
75418;BME280;63997;52.112;5.420;2023-09-12T07:07:06;101398.66;;;18.00;97.07
75418;BME280;63997;52.112;5.420;2023-09-12T07:09:32;101397.22;;;18.06;96.82
75418;BME280;63997;52.112;5.420;2023-09-12T07:11:59;101403.88;;;18.12;96.87
75418;BME280;63997;52.112;5.420;2023-09-12T07:14:26;101394.41;;;18.18;96.99
75418;BME280;63997;52.112;5.420;2023-09-12T07:16:52;101395.31;;;18.26;97.21
75418;BME280;63997;52.112;5.420;2023-09-12T07:19:19;101383.88;;;18.33;97.01
75418;BME280;63997;52.112;5.420;2023-09-12T07:21:45;101383.16;;;18.36;96.96
75418;BME280;63997;52.112;5.420;2023-09-12T07:24:12;101379.38;;;18.40;97.02
75418;BME280;63997;52.112;5.420;2023-09-12T07:26:39;101387.94;;;18.46;97.02
75418;BME280;63997;52.112;5.420;2023-09-12T07:29:05;101385.69;;;18.48;96.77
75418;BME280;63997;52.112;5.420;2023-09-12T07:31:32;101395.72;;;18.51;96.96
75418;BME280;63997;52.112;5.420;2023-09-12T07:33:58;101391.91;;;18.52;96.97
75418;BME280;63997;52.112;5.420;2023-09-12T07:36:25;101397.31;;;18.52;96.85
75418;BME280;63997;52.112;5.420;2023-09-12T07:38:51;101393.81;;;18.51;97.06
75418;BME280;63997;52.112;5.420;2023-09-12T07:41:18;101396.56;;;18.55;97.13
75418;BME280;63997;52.112;5.420;2023-09-12T07:43:45;101394.34;;;18.61;97.41
75418;BME280;63997;52.112;5.420;2023-09-12T07:46:12;101399.94;;;18.71;97.58
75418;BME280;63997;52.112;5.420;2023-09-12T07:48:38;101394.06;;;18.89;97.55
75418;BME280;63997;52.112;5.420;2023-09-12T07:51:15;101401.53;;;19.25;97.31
75418;BME280;63997;52.112;5.420;2023-09-12T07:53:43;101399.78;;;19.67;95.96
75418;BME280;63997;52.112;5.420;2023-09-12T07:56:10;101399.50;;;20.09;94.10
75418;BME280;63997;52.112;5.420;2023-09-12T07:58:37;101395.50;;;20.37;92.61
75418;BME280;63997;52.112;5.420;2023-09-12T08:01:08;101391.50;;;20.60;90.95
75418;BME280;63997;52.112;5.420;2023-09-12T08:03:35;101399.38;;;20.76;90.27
75418;BME280;63997;52.112;5.420;2023-09-12T08:06:03;101409.47;;;20.86;90.18
75418;BME280;63997;52.112;5.420;2023-09-12T08:08:30;101409.16;;;20.95;90.67
75418;BME280;63997;52.112;5.420;2023-09-12T08:10:57;101415.72;;;20.98;90.00
75418;BME280;63997;52.112;5.420;2023-09-12T08:13:28;101423.09;;;21.04;89.43
75418;BME280;63997;52.112;5.420;2023-09-12T08:15:55;101425.50;;;21.13;89.41
75418;BME280;63997;52.112;5.420;2023-09-12T08:18:21;101429.03;;;21.24;88.02
75418;BME280;63997;52.112;5.420;2023-09-12T08:20:48;101426.81;;;21.37;88.91
75418;BME280;63997;52.112;5.420;2023-09-12T08:23:15;101428.47;;;21.59;88.66
75418;BME280;63997;52.112;5.420;2023-09-12T08:25:41;101425.06;;;21.77;87.38
75418;BME280;63997;52.112;5.420;2023-09-12T08:28:07;101424.72;;;21.85;87.14
75418;BME280;63997;52.112;5.420;2023-09-12T08:30:34;101428.72;;;22.13;86.00
75418;BME280;63997;52.112;5.420;2023-09-12T08:33:00;101430.28;;;22.17;85.45
75418;BME280;63997;52.112;5.420;2023-09-12T08:35:29;101423.31;;;22.24;85.15
75418;BME280;63997;52.112;5.420;2023-09-12T08:37:56;101427.16;;;22.19;84.20
75418;BME280;63997;52.112;5.420;2023-09-12T08:40:22;101422.53;;;22.23;85.70
75418;BME280;63997;52.112;5.420;2023-09-12T08:42:51;101420.19;;;22.22;84.71
75418;BME280;63997;52.112;5.420;2023-09-12T08:48:00;101424.50;;;23.12;82.93
75418;BME280;63997;52.112;5.420;2023-09-12T08:50:27;101422.16;;;23.25;82.27
75418;BME280;63997;52.112;5.420;2023-09-12T08:52:57;101431.06;;;23.25;81.76
75418;BME280;63997;52.112;5.420;2023-09-12T08:55:34;101424.88;;;23.10;81.63
75418;BME280;63997;52.112;5.420;2023-09-12T08:58:05;101424.13;;;22.99;79.20
75418;BME280;63997;52.112;5.420;2023-09-12T09:00:34;101423.72;;;22.86;81.05
75418;BME280;63997;52.112;5.420;2023-09-12T09:03:03;101421.81;;;22.98;81.76
75418;BME280;63997;52.112;5.420;2023-09-12T09:05:30;101416.78;;;23.03;80.81
75418;BME280;63997;52.112;5.420;2023-09-12T09:07:58;101420.25;;;23.18;82.21
75418;BME280;63997;52.112;5.420;2023-09-12T09:10:25;101431.03;;;23.39;81.72
75418;BME280;63997;52.112;5.420;2023-09-12T09:13:15;101426.31;;;23.58;80.30
75418;BME280;63997;52.112;5.420;2023-09-12T09:15:42;101429.41;;;23.70;78.79
75418;BME280;63997;52.112;5.420;2023-09-12T09:18:09;101432.91;;;23.57;77.74
75418;BME280;63997;52.112;5.420;2023-09-12T09:20:38;101429.03;;;23.54;79.18
75418;BME280;63997;52.112;5.420;2023-09-12T09:23:08;101437.94;;;23.69;79.58
75418;BME280;63997;52.112;5.420;2023-09-12T09:25:42;101435.56;;;23.78;79.07
75418;BME280;63997;52.112;5.420;2023-09-12T09:28:20;101439.41;;;23.84;79.33
75418;BME280;63997;52.112;5.420;2023-09-12T09:30:48;101439.44;;;23.77;79.36
75418;BME280;63997;52.112;5.420;2023-09-12T09:33:17;101439.84;;;23.72;78.22
75418;BME280;63997;52.112;5.420;2023-09-12T09:35:48;101445.34;;;23.65;77.30
75418;BME280;63997;52.112;5.420;2023-09-12T09:38:18;101441.41;;;23.80;77.62
75418;BME280;63997;52.112;5.420;2023-09-12T09:40:46;101444.06;;;23.87;77.26
75418;BME280;63997;52.112;5.420;2023-09-12T09:43:12;101444.03;;;23.94;77.16
75418;BME280;63997;52.112;5.420;2023-09-12T09:45:44;101440.13;;;24.02;77.35
75418;BME280;63997;52.112;5.420;2023-09-12T09:48:20;101442.44;;;24.08;75.90
75418;BME280;63997;52.112;5.420;2023-09-12T09:50:47;101439.63;;;24.18;75.49
75418;BME280;63997;52.112;5.420;2023-09-12T09:53:14;101448.06;;;24.38;78.01
75418;BME280;63997;52.112;5.420;2023-09-12T09:55:40;101436.72;;;24.50;75.98
75418;BME280;63997;52.112;5.420;2023-09-12T09:58:14;101439.44;;;24.54;74.51
75418;BME280;63997;52.112;5.420;2023-09-12T10:00:43;101442.56;;;24.52;73.05
75418;BME280;63997;52.112;5.420;2023-09-12T10:03:11;101445.28;;;24.52;72.54
75418;BME280;63997;52.112;5.420;2023-09-12T10:05:39;101440.63;;;24.46;73.55
75418;BME280;63997;52.112;5.420;2023-09-12T10:08:07;101447.94;;;24.60;73.81
75418;BME280;63997;52.112;5.420;2023-09-12T10:10:38;101447.00;;;24.80;74.54
75418;BME280;63997;52.112;5.420;2023-09-12T10:13:09;101459.78;;;24.80;71.66
75418;BME280;63997;52.112;5.420;2023-09-12T10:15:39;101457.91;;;24.77;72.25
75418;BME280;63997;52.112;5.420;2023-09-12T10:18:16;101455.09;;;24.88;72.20
75418;BME280;63997;52.112;5.420;2023-09-12T10:21:02;101449.84;;;25.11;74.14
75418;BME280;63997;52.112;5.420;2023-09-12T10:23:37;101454.91;;;25.09;71.41
75418;BME280;63997;52.112;5.420;2023-09-12T10:26:11;101455.03;;;24.91;71.98
75418;BME280;63997;52.112;5.420;2023-09-12T10:28:41;101456.34;;;24.76;73.46
75418;BME280;63997;52.112;5.420;2023-09-12T10:31:16;101444.31;;;24.73;72.54
75418;BME280;63997;52.112;5.420;2023-09-12T10:33:46;101430.53;;;24.91;72.37
75418;BME280;63997;52.112;5.420;2023-09-12T10:36:13;101428.88;;;25.04;71.66
75418;BME280;63997;52.112;5.420;2023-09-12T10:38:45;101437.81;;;25.09;71.21
75418;BME280;63997;52.112;5.420;2023-09-12T10:41:14;101441.91;;;25.24;68.84
75418;BME280;63997;52.112;5.420;2023-09-12T10:43:43;101441.03;;;25.34;69.98
75418;BME280;63997;52.112;5.420;2023-09-12T10:46:10;101437.53;;;25.37;69.27
75418;BME280;63997;52.112;5.420;2023-09-12T10:48:37;101442.44;;;25.49;67.87
75418;BME280;63997;52.112;5.420;2023-09-12T10:51:07;101447.44;;;25.54;69.16
75418;BME280;63997;52.112;5.420;2023-09-12T10:53:33;101449.88;;;25.45;69.16
75418;BME280;63997;52.112;5.420;2023-09-12T10:56:01;101458.44;;;25.44;69.72
75418;BME280;63997;52.112;5.420;2023-09-12T11:01:40;101452.44;;;25.22;68.68
75418;BME280;63997;52.112;5.420;2023-09-12T11:06:54;101453.81;;;24.99;69.95
75418;BME280;63997;52.112;5.420;2023-09-12T11:09:24;101445.47;;;25.21;68.60
75418;BME280;63997;52.112;5.420;2023-09-12T11:12:02;101457.69;;;25.43;68.45
75418;BME280;63997;52.112;5.420;2023-09-12T11:14:30;101450.81;;;25.66;66.97
75418;BME280;63997;52.112;5.420;2023-09-12T11:19:43;101438.66;;;26.04;68.20
75418;BME280;63997;52.112;5.420;2023-09-12T11:22:46;101437.59;;;25.95;68.04
75418;BME280;63997;52.112;5.420;2023-09-12T11:28:01;101420.63;;;25.83;65.69
75418;BME280;63997;52.112;5.420;2023-09-12T11:30:29;101418.47;;;25.68;65.22
75418;BME280;63997;52.112;5.420;2023-09-12T11:33:04;101413.16;;;25.57;65.93
75418;BME280;63997;52.112;5.420;2023-09-12T11:35:36;101419.47;;;25.50;66.78
75418;BME280;63997;52.112;5.420;2023-09-12T11:38:03;101418.47;;;25.37;65.71
75418;BME280;63997;52.112;5.420;2023-09-12T11:43:02;101425.63;;;25.20;67.07
75418;BME280;63997;52.112;5.420;2023-09-12T11:45:29;101419.75;;;25.25;67.12
75418;BME280;63997;52.112;5.420;2023-09-12T11:47:57;101426.53;;;25.44;64.60
75418;BME280;63997;52.112;5.420;2023-09-12T11:50:31;101427.41;;;25.68;66.35
75418;BME280;63997;52.112;5.420;2023-09-12T11:53:06;101422.94;;;25.85;63.74
75418;BME280;63997;52.112;5.420;2023-09-12T11:55:50;101422.69;;;26.03;65.35
75418;BME280;63997;52.112;5.420;2023-09-12T11:58:18;101421.09;;;26.05;64.79
75418;BME280;63997;52.112;5.420;2023-09-12T12:00:50;101423.69;;;26.16;63.84
75418;BME280;63997;52.112;5.420;2023-09-12T12:03:21;101430.06;;;26.33;62.73
75418;BME280;63997;52.112;5.420;2023-09-12T12:05:48;101423.03;;;26.32;63.55
75418;BME280;63997;52.112;5.420;2023-09-12T12:08:17;101428.97;;;26.27;62.80
75418;BME280;63997;52.112;5.420;2023-09-12T12:10:51;101419.69;;;26.48;62.27
75418;BME280;63997;52.112;5.420;2023-09-12T12:13:18;101420.97;;;26.67;61.82
75418;BME280;63997;52.112;5.420;2023-09-12T12:15:45;101431.16;;;26.86;63.30
75418;BME280;63997;52.112;5.420;2023-09-12T12:18:12;101423.00;;;26.82;61.31
75418;BME280;63997;52.112;5.420;2023-09-12T12:20:38;101418.28;;;26.63;60.98
75418;BME280;63997;52.112;5.420;2023-09-12T12:23:05;101416.72;;;26.38;61.52
75418;BME280;63997;52.112;5.420;2023-09-12T12:25:33;101409.00;;;26.33;61.27
75418;BME280;63997;52.112;5.420;2023-09-12T12:28:01;101401.44;;;26.45;61.77
75418;BME280;63997;52.112;5.420;2023-09-12T12:30:33;101401.78;;;26.47;60.66
75418;BME280;63997;52.112;5.420;2023-09-12T12:33:01;101405.84;;;26.35;62.21
75418;BME280;63997;52.112;5.420;2023-09-12T12:35:49;101405.38;;;26.17;63.76
75418;BME280;63997;52.112;5.420;2023-09-12T12:38:21;101407.47;;;26.05;64.45
75418;BME280;63997;52.112;5.420;2023-09-12T12:40:50;101405.75;;;26.15;61.08
75418;BME280;63997;52.112;5.420;2023-09-12T12:43:18;101393.00;;;26.08;60.35
75418;BME280;63997;52.112;5.420;2023-09-12T12:45:54;101394.06;;;26.15;62.91
75418;BME280;63997;52.112;5.420;2023-09-12T12:48:35;101395.16;;;26.21;62.38
75418;BME280;63997;52.112;5.420;2023-09-12T12:51:23;101386.28;;;26.40;63.00
75418;BME280;63997;52.112;5.420;2023-09-12T12:53:55;101386.78;;;26.58;59.68
75418;BME280;63997;52.112;5.420;2023-09-12T12:56:27;101388.91;;;26.71;58.15
75418;BME280;63997;52.112;5.420;2023-09-12T12:58:58;101392.50;;;26.68;59.54
75418;BME280;63997;52.112;5.420;2023-09-12T13:01:29;101398.53;;;26.79;59.00
75418;BME280;63997;52.112;5.420;2023-09-12T13:03:56;101401.38;;;26.72;59.37
75418;BME280;63997;52.112;5.420;2023-09-12T13:06:23;101397.66;;;26.62;60.05
75418;BME280;63997;52.112;5.420;2023-09-12T13:08:49;101402.44;;;26.54;61.00
75418;BME280;63997;52.112;5.420;2023-09-12T13:11:17;101404.19;;;26.45;59.36
75418;BME280;63997;52.112;5.420;2023-09-12T13:13:47;101393.47;;;26.54;61.12